Time;durP1;ratioP1;P1;durP2;ratioP2;P2;SDS_P1;SDS_P2;PMS_P1;PMS_P2;Temp;Humidity;BMP_temperature;BMP_pressure;BME280_temperature;BME280_humidity;BME280_pressure;Samples;Min_cycle;Max_cycle;Signal;HPM_P1;HPM_P2
2023/04/29 00:00:31;;;;;;;;;;;;;;;12.13;100.00;96413.13;5043204;28;19917;-72
2023/04/29 00:02:56;;;;;;;;;;;;;;;12.14;100.00;96415.47;5042483;28;20365;-72
2023/04/29 00:05:21;;;;;;;;;;;;;;;12.09;100.00;96415.84;5038019;28;20200;-73
2023/04/29 00:07:47;;;;;;;;;;;;;;;12.10;100.00;96411.94;5042370;28;19991;-73
2023/04/29 00:10:13;;;;;;;;;;;;;;;12.18;100.00;96412.75;5037556;28;19921;-71
2023/04/29 00:12:40;;;;;;;;;;;;;;;12.14;100.00;96418.22;5042040;28;20384;-71
2023/04/29 00:15:05;;;;;;;;;;;;;;;12.10;100.00;96406.44;5037840;28;19990;-71
2023/04/29 00:17:31;;;;;;;;;;;;;;;12.12;100.00;96411.53;5041930;28;19921;-73
2023/04/29 00:19:56;;;;;;;;;;;;;;;12.13;100.00;96404.88;5044734;28;19959;-73
2023/04/29 00:22:21;;;;;;;;;;;;;;;12.24;100.00;96411.19;5043443;28;19932;-73
2023/04/29 00:24:47;;;;;;;;;;;;;;;12.36;100.00;96413.63;5049016;28;19959;-72
2023/04/29 00:27:12;;;;;;;;;;;;;;;12.36;100.00;96405.38;5043556;28;19970;-73
2023/04/29 00:29:37;;;;;;;;;;;;;;;12.34;100.00;96404.97;5048757;28;19921;-72
2023/04/29 00:32:03;;;;;;;;;;;;;;;12.32;100.00;96404.59;5046054;28;19923;-70
2023/04/29 00:34:29;;;;;;;;;;;;;;;12.27;100.00;96399.47;5031807;28;19917;-71
2023/04/29 00:36:54;;;;;;;;;;;;;;;12.12;100.00;96406.84;5048432;28;19944;-73
2023/04/29 00:39:19;;;;;;;;;;;;;;;12.08;100.00;96414.25;5043745;28;19921;-73
2023/04/29 00:41:45;;;;;;;;;;;;;;;12.11;100.00;96405.25;5049260;28;20099;-72
2023/04/29 00:44:11;;;;;;;;;;;;;;;12.08;100.00;96407.97;5044015;28;19928;-72
2023/04/29 00:46:36;;;;;;;;;;;;;;;11.96;100.00;96406.34;5048149;28;20018;-71
2023/04/29 00:49:02;;;;;;;;;;;;;;;11.95;100.00;96402.03;5013958;28;19921;-73
2023/04/29 00:51:28;;;;;;;;;;;;;;;12.03;100.00;96398.94;5046638;28;20016;-73
2023/04/29 00:53:53;;;;;;;;;;;;;;;11.99;100.00;96400.09;5048508;28;19924;-73
2023/04/29 00:56:19;;;;;;;;;;;;;;;12.10;100.00;96400.94;5044618;28;19927;-72
2023/04/29 00:58:48;;;;;;;;;;;;;;;12.13;100.00;96404.88;5048851;28;19916;-73
2023/04/29 01:01:15;;;;;;;;;;;;;;;12.11;100.00;96399.75;5044420;28;20067;-72
2023/04/29 01:03:40;;;;;;;;;;;;;;;12.02;100.00;96411.09;5048599;28;20016;-72
2023/04/29 01:06:24;;;;;;;;;;;;;;;12.02;100.00;96407.56;5044143;28;20069;-71
2023/04/29 01:09:10;;;;;;;;;;;;;;;12.01;100.00;96406.78;5050006;28;19917;-73
2023/04/29 01:11:43;;;;;;;;;;;;;;;12.05;100.00;96404.84;5016339;28;19924;-73
2023/04/29 01:14:09;;;;;;;;;;;;;;;12.03;100.00;96406.41;5026328;28;19917;-72
2023/04/29 01:16:46;;;;;;;;;;;;;;;11.98;100.00;96398.53;5049113;28;19940;-72
2023/04/29 01:19:47;;;;;;;;;;;;;;;11.97;100.00;96405.94;5043800;28;19960;-71
2023/04/29 01:22:13;;;;;;;;;;;;;;;11.88;100.00;96405.47;5000950;28;19922;-70
2023/04/29 01:24:39;;;;;;;;;;;;;;;11.84;100.00;96399.19;5042931;28;19920;-72
2023/04/29 01:27:09;;;;;;;;;;;;;;;11.89;100.00;96401.56;5044452;28;20428;-66
2023/04/29 01:29:40;;;;;;;;;;;;;;;11.93;100.00;96399.66;5048402;28;19923;-73
2023/04/29 01:32:12;;;;;;;;;;;;;;;11.94;100.00;96403.19;5040940;28;20015;-72
2023/04/29 01:34:51;;;;;;;;;;;;;;;11.88;100.00;96405.47;5048990;28;19917;-72
2023/04/29 01:37:18;;;;;;;;;;;;;;;11.85;100.00;96401.56;5048658;28;19931;-72
2023/04/29 01:40:03;;;;;;;;;;;;;;;11.74;100.00;96394.41;5041289;28;20023;-70
2023/04/29 01:42:31;;;;;;;;;;;;;;;11.75;100.00;96393.25;5052609;28;19922;-71
2023/04/29 01:44:59;;;;;;;;;;;;;;;11.77;100.00;96388.16;5037377;28;19956;-73
2023/04/29 01:47:26;;;;;;;;;;;;;;;11.77;100.00;96386.19;5051603;28;19917;-72
2023/04/29 01:49:51;;;;;;;;;;;;;;;11.68;100.00;96388.50;5049614;28;19917;-69
2023/04/29 01:52:16;;;;;;;;;;;;;;;11.62;100.00;96390.03;5044303;28;20366;-73
2023/04/29 01:54:42;;;;;;;;;;;;;;;11.65;100.00;96389.28;5046126;28;19917;-73
2023/04/29 01:57:07;;;;;;;;;;;;;;;11.63;100.00;96381.41;5039691;28;20018;-72
2023/04/29 01:59:32;;;;;;;;;;;;;;;11.63;100.00;96380.63;5043898;28;19917;-73
2023/04/29 02:01:58;;;;;;;;;;;;;;;11.59;100.00;96377.84;5044921;28;19916;-73
2023/04/29 02:04:23;;;;;;;;;;;;;;;11.62;100.00;96387.28;5039227;28;19913;-74
2023/04/29 02:06:49;;;;;;;;;;;;;;;11.75;100.00;96383.06;5044028;28;19932;-73
2023/04/29 02:09:14;;;;;;;;;;;;;;;11.75;100.00;96388.53;5039962;28;19921;-70
2023/04/29 02:11:40;;;;;;;;;;;;;;;11.74;100.00;96399.88;5027092;28;19917;-72
2023/04/29 02:14:05;;;;;;;;;;;;;;;11.73;100.00;96392.84;5040390;28;19921;-72
2023/04/29 02:16:30;;;;;;;;;;;;;;;11.58;100.00;96395.47;5026179;28;19956;-73
2023/04/29 02:18:56;;;;;;;;;;;;;;;11.50;100.00;96395.81;5026999;28;20515;-73
2023/04/29 02:21:21;;;;;;;;;;;;;;;11.48;100.00;96404.41;5040066;28;19924;-72
2023/04/29 02:23:46;;;;;;;;;;;;;;;11.56;100.00;96405.25;5044037;28;20097;-73
2023/04/29 02:26:14;;;;;;;;;;;;;;;11.57;100.00;96410.34;5039210;28;20440;-73
2023/04/29 02:28:39;;;;;;;;;;;;;;;11.65;100.00;96411.22;5045334;28;19917;-71
2023/04/29 02:31:04;;;;;;;;;;;;;;;11.60;100.00;96411.56;5040271;28;19995;-71
2023/04/29 02:33:30;;;;;;;;;;;;;;;11.65;100.00;96403.00;5043636;28;19920;-72
2023/04/29 02:35:55;;;;;;;;;;;;;;;11.65;100.00;96403.75;5020203;28;20724;-72
2023/04/29 02:38:22;;;;;;;;;;;;;;;11.66;100.00;96410.03;5021977;28;20344;-72
2023/04/29 02:40:47;;;;;;;;;;;;;;;11.63;100.00;96408.03;5043588;28;19969;-73
2023/04/29 02:43:13;;;;;;;;;;;;;;;11.53;100.00;96406.03;5038932;28;19917;-73
2023/04/29 02:45:38;;;;;;;;;;;;;;;11.45;100.00;96405.97;5024739;28;19920;-72
2023/04/29 02:48:04;;;;;;;;;;;;;;;11.33;100.00;96395.28;5040329;28;19917;-68
2023/04/29 02:50:30;;;;;;;;;;;;;;;11.24;100.00;96400.31;5044214;28;20018;-73
2023/04/29 02:52:56;;;;;;;;;;;;;;;11.34;100.00;96390.56;5026095;28;19966;-72
2023/04/29 02:55:21;;;;;;;;;;;;;;;11.58;100.00;96394.72;5037280;28;20292;-70
2023/04/29 02:57:47;;;;;;;;;;;;;;;11.66;100.00;96388.88;5043326;28;19928;-71
2023/04/29 03:00:12;;;;;;;;;;;;;;;11.58;100.00;96387.25;5038727;28;19964;-70
2023/04/29 03:02:37;;;;;;;;;;;;;;;11.56;100.00;96384.13;5043141;28;19920;-72
2023/04/29 03:05:03;;;;;;;;;;;;;;;11.45;100.00;96389.50;5023620;28;20282;-67
2023/04/29 03:07:29;;;;;;;;;;;;;;;11.36;100.00;96391.78;5024514;28;20058;-73
2023/04/29 03:09:54;;;;;;;;;;;;;;;11.48;100.00;96387.94;5044436;28;19917;-73
2023/04/29 03:12:20;;;;;;;;;;;;;;;11.56;100.00;96392.34;5041383;28;19939;-71
2023/04/29 03:14:45;;;;;;;;;;;;;;;11.63;100.00;96392.41;5047354;28;19924;-72
2023/04/29 03:17:11;;;;;;;;;;;;;;;11.63;100.00;96392.41;5019423;28;19956;-73
2023/04/29 03:19:36;;;;;;;;;;;;;;;11.51;100.00;96387.19;5043474;28;20439;-72
2023/04/29 03:22:04;;;;;;;;;;;;;;;11.40;100.00;96384.38;5037852;28;20389;-68
2023/04/29 03:24:29;;;;;;;;;;;;;;;11.34;100.00;96391.34;5025167;28;19956;-73
2023/04/29 03:26:54;;;;;;;;;;;;;;;11.21;100.00;96381.84;5042615;28;19923;-73
2023/04/29 03:29:19;;;;;;;;;;;;;;;11.28;100.00;96384.66;5037213;28;20297;-71
2023/04/29 03:31:45;;;;;;;;;;;;;;;11.37;100.00;96385.13;5043024;28;19996;-73
2023/04/29 03:34:11;;;;;;;;;;;;;;;11.44;100.00;96385.19;5020152;28;19917;-73
2023/04/29 03:36:36;;;;;;;;;;;;;;;11.48;100.00;96383.25;5043862;28;19921;-73
2023/04/29 03:39:01;;;;;;;;;;;;;;;11.50;100.00;96376.59;5042808;28;19964;-74
2023/04/29 03:41:26;;;;;;;;;;;;;;;11.45;100.00;96383.22;5038570;28;19917;-73
2023/04/29 03:43:53;;;;;;;;;;;;;;;11.51;100.00;96386.41;5044891;28;20374;-73
2023/04/29 03:46:19;;;;;;;;;;;;;;;11.50;100.00;96380.13;5039142;28;19917;-73
2023/04/29 03:48:44;;;;;;;;;;;;;;;11.38;100.00;96386.72;5046412;28;19997;-71
2023/04/29 03:51:09;;;;;;;;;;;;;;;11.35;100.00;96384.72;5038220;28;20284;-73
2023/04/29 03:53:35;;;;;;;;;;;;;;;11.39;100.00;96382.00;5025231;28;19917;-72
2023/04/29 03:56:01;;;;;;;;;;;;;;;11.38;100.00;96378.50;5042379;28;20011;-74
2023/04/29 03:58:26;;;;;;;;;;;;;;;11.36;100.00;96383.56;5037288;28;19963;-71
2023/04/29 04:00:52;;;;;;;;;;;;;;;11.31;100.00;96377.63;5043758;28;19917;-73
2023/04/29 04:03:17;;;;;;;;;;;;;;;11.27;100.00;96386.63;5037608;28;20350;-73
2023/04/29 04:05:42;;;;;;;;;;;;;;;11.25;100.00;96379.94;5042338;28;19917;-73
2023/04/29 04:08:08;;;;;;;;;;;;;;;11.04;100.00;96370.38;5037550;28;19928;-73
2023/04/29 04:10:33;;;;;;;;;;;;;;;10.87;100.00;96373.72;5043276;28;19960;-72
2023/04/29 04:12:58;;;;;;;;;;;;;;;10.81;100.00;96373.25;5042442;28;20008;-73
2023/04/29 04:15:25;;;;;;;;;;;;;;;10.71;100.00;96374.75;5020371;28;19945;-73
2023/04/29 04:17:50;;;;;;;;;;;;;;;10.74;100.00;96369.69;5042322;28;19928;-73
2023/04/29 04:20:16;;;;;;;;;;;;;;;10.79;100.00;96375.59;5036406;28;19921;-72
2023/04/29 04:22:42;;;;;;;;;;;;;;;10.89;100.00;96371.38;5042561;28;19921;-73
2023/04/29 04:25:08;;;;;;;;;;;;;;;10.95;100.00;96382.78;5020164;28;20362;-71
2023/04/29 04:27:34;;;;;;;;;;;;;;;10.92;100.00;96380.81;5042303;28;19917;-71
2023/04/29 04:29:59;;;;;;;;;;;;;;;10.95;100.00;96391.00;5041421;28;19924;-72
2023/04/29 04:32:25;;;;;;;;;;;;;;;10.95;100.00;96389.06;5036979;28;19978;-72
2023/04/29 04:34:51;;;;;;;;;;;;;;;10.90;100.00;96398.41;5024095;28;20019;-71
2023/04/29 04:37:17;;;;;;;;;;;;;;;10.96;100.00;96395.31;5033183;28;19925;-71
2023/04/29 04:39:42;;;;;;;;;;;;;;;10.94;100.00;96387.47;5041993;28;19923;-71
2023/04/29 04:42:07;;;;;;;;;;;;;;;10.98;100.00;96393.00;5036246;28;19917;-72
2023/04/29 04:44:32;;;;;;;;;;;;;;;11.03;100.00;96403.63;5023661;28;19964;-71
2023/04/29 04:47:00;;;;;;;;;;;;;;;11.06;100.00;96398.19;5042470;28;20392;-72
2023/04/29 04:49:26;;;;;;;;;;;;;;;11.09;100.00;96407.59;5036953;28;19921;-71
2023/04/29 04:51:51;;;;;;;;;;;;;;;11.05;100.00;96396.59;5024434;28;19967;-73
2023/04/29 04:54:17;;;;;;;;;;;;;;;11.14;100.00;96411.94;5036680;28;19921;-70
2023/04/29 04:56:42;;;;;;;;;;;;;;;11.16;100.00;96418.63;5025269;28;19960;-72
2023/04/29 04:59:07;;;;;;;;;;;;;;;11.16;100.00;96423.31;5058709;28;19901;-69
2023/04/29 05:01:33;;;;;;;;;;;;;;;11.26;100.00;96434.38;5060490;28;19932;-73
2023/04/29 05:03:59;;;;;;;;;;;;;;;11.39;100.00;96428.63;5048162;28;20324;-70
2023/04/29 05:06:24;;;;;;;;;;;;;;;11.48;100.00;96432.63;5037606;28;19927;-72
2023/04/29 05:08:50;;;;;;;;;;;;;;;11.39;100.00;96432.16;5045993;28;19921;-71
2023/04/29 05:11:19;;;;;;;;;;;;;;;11.41;100.00;96426.28;5038192;28;20167;-73
2023/04/29 05:13:45;;;;;;;;;;;;;;;11.42;100.00;96438.84;5046118;28;19924;-73
2023/04/29 05:16:10;;;;;;;;;;;;;;;11.49;100.00;96447.13;5039412;28;20358;-72
2023/04/29 05:18:36;;;;;;;;;;;;;;;11.56;100.00;96438.16;5044761;28;19921;-69
2023/04/29 05:21:01;;;;;;;;;;;;;;;11.54;100.00;96435.81;5045495;28;19971;-74
2023/04/29 05:23:27;;;;;;;;;;;;;;;11.79;100.00;96443.44;5025783;28;19924;-73
2023/04/29 05:25:52;;;;;;;;;;;;;;;12.20;100.00;96455.13;5060768;28;19917;-69
2023/04/29 05:28:18;;;;;;;;;;;;;;;12.55;100.00;96451.00;5059069;28;20385;-72
2023/04/29 05:30:43;;;;;;;;;;;;;;;12.77;100.00;96457.38;5046075;28;19916;-73
2023/04/29 05:33:09;;;;;;;;;;;;;;;12.89;100.00;96458.19;5022506;28;19920;-72
2023/04/29 05:35:34;;;;;;;;;;;;;;;13.00;100.00;96465.31;5043970;28;19925;-73
2023/04/29 05:37:59;;;;;;;;;;;;;;;13.15;100.00;96463.38;5027838;28;19927;-72
2023/04/29 05:40:25;;;;;;;;;;;;;;;13.29;100.00;96465.38;5042218;28;19946;-72
2023/04/29 05:42:50;;;;;;;;;;;;;;;13.42;100.00;96465.81;5042684;28;19978;-70
2023/04/29 05:45:16;;;;;;;;;;;;;;;13.86;100.00;96464.63;5039813;28;20356;-72
2023/04/29 05:47:41;;;;;;;;;;;;;;;14.34;100.00;96466.16;5044488;28;20411;-71
2023/04/29 05:50:07;;;;;;;;;;;;;;;14.60;100.00;96478.72;5040755;28;19917;-71
2023/04/29 05:52:32;;;;;;;;;;;;;;;14.63;100.00;96474.38;5042902;28;19975;-73
2023/04/29 05:54:57;;;;;;;;;;;;;;;14.87;100.00;96476.28;5044607;28;19970;-72
2023/04/29 05:57:22;;;;;;;;;;;;;;;15.14;100.00;96477.72;5039339;28;19917;-72
2023/04/29 05:59:48;;;;;;;;;;;;;;;15.19;100.00;96482.81;5045070;28;20007;-73
2023/04/29 06:02:13;;;;;;;;;;;;;;;15.32;100.00;96483.91;5040107;28;20023;-72
2023/04/29 06:04:40;;;;;;;;;;;;;;;15.47;100.00;96490.16;5043800;28;19942;-72
2023/04/29 06:07:07;;;;;;;;;;;;;;;15.49;100.00;96485.78;5020946;28;19920;-72
2023/04/29 06:09:34;;;;;;;;;;;;;;;15.36;100.00;96486.66;5026210;28;19971;-72
2023/04/29 06:11:59;;;;;;;;;;;;;;;15.69;100.00;96488.03;5026788;28;19924;-73
2023/04/29 06:14:24;;;;;;;;;;;;;;;16.02;100.00;96488.59;5038752;28;19917;-72
2023/04/29 06:16:50;;;;;;;;;;;;;;;16.57;100.00;96489.66;5009150;28;19921;-71
2023/04/29 06:19:15;;;;;;;;;;;;;;;17.22;100.00;96497.22;5038724;28;20224;-72
2023/04/29 06:21:40;;;;;;;;;;;;;;;17.49;100.00;96492.50;5026131;28;19921;-71
2023/04/29 06:24:06;;;;;;;;;;;;;;;17.65;100.00;96500.19;5039368;28;20715;-72
2023/04/29 06:26:31;;;;;;;;;;;;;;;18.64;100.00;96500.94;5044230;28;20032;-73
2023/04/29 06:28:57;;;;;;;;;;;;;;;19.74;89.32;96508.25;5044786;28;19925;-70
2023/04/29 06:31:22;;;;;;;;;;;;;;;20.19;87.04;96509.56;5040554;28;20267;-69
2023/04/29 06:33:47;;;;;;;;;;;;;;;20.41;85.29;96515.38;5045042;28;19940;-71
2023/04/29 06:36:13;;;;;;;;;;;;;;;21.33;81.21;96516.09;5038697;28;19924;-71
2023/04/29 06:38:38;;;;;;;;;;;;;;;21.37;77.84;96514.75;5021124;28;19917;-72
2023/04/29 06:41:03;;;;;;;;;;;;;;;20.32;83.27;96521.53;5040797;28;19917;-67
2023/04/29 06:43:29;;;;;;;;;;;;;;;20.07;86.75;96515.81;5009513;28;20373;-70
2023/04/29 06:45:54;;;;;;;;;;;;;;;20.64;81.84;96519.19;5030988;28;19916;-73
2023/04/29 06:48:20;;;;;;;;;;;;;;;20.50;85.71;96521.09;5027842;28;19917;-74
2023/04/29 06:50:48;;;;;;;;;;;;;;;20.63;80.97;96515.63;5043922;28;19976;-73
2023/04/29 06:53:14;;;;;;;;;;;;;;;19.94;84.08;96519.28;5038547;28;20285;-73
2023/04/29 06:55:40;;;;;;;;;;;;;;;21.29;76.10;96515.41;5024666;28;19920;-72
2023/04/29 06:58:05;;;;;;;;;;;;;;;22.38;72.01;96514.44;5038684;28;19921;-74
2023/04/29 07:00:31;;;;;;;;;;;;;;;23.46;66.15;96519.84;5044701;28;19924;-74
2023/04/29 07:02:56;;;;;;;;;;;;;;;24.43;60.56;96515.25;5043950;28;19925;-74
2023/04/29 07:05:22;;;;;;;;;;;;;;;24.53;56.18;96521.69;5038271;28;20574;-74
2023/04/29 07:07:47;;;;;;;;;;;;;;;23.60;60.72;96523.31;5042470;28;19928;-73
2023/04/29 07:10:12;;;;;;;;;;;;;;;24.15;56.04;96525.63;5037415;28;20086;-72
2023/04/29 07:12:37;;;;;;;;;;;;;;;24.86;56.34;96524.66;5043347;28;19927;-72
2023/04/29 07:15:03;;;;;;;;;;;;;;;25.58;52.39;96520.72;5040911;28;19923;-69
2023/04/29 07:17:30;;;;;;;;;;;;;;;24.67;54.20;96520.28;5041089;28;19936;-70
2023/04/29 07:19:55;;;;;;;;;;;;;;;24.20;55.78;96524.97;5024319;28;19971;-71
2023/04/29 07:22:21;;;;;;;;;;;;;;;25.42;52.69;96521.84;5036455;28;19939;-70
2023/04/29 07:24:46;;;;;;;;;;;;;;;24.90;53.33;96513.28;5042993;28;20110;-68
2023/04/29 07:27:12;;;;;;;;;;;;;;;26.13;50.10;96534.56;5037524;28;20000;-70
2023/04/29 07:29:37;;;;;;;;;;;;;;;26.65;49.92;96528.81;5041606;28;20376;-70
2023/04/29 07:32:02;;;;;;;;;;;;;;;26.05;49.40;96542.53;5039371;28;19939;-68
2023/04/29 07:34:28;;;;;;;;;;;;;;;25.97;50.79;96532.16;5040508;28;19963;-70
2023/04/29 07:36:53;;;;;;;;;;;;;;;26.18;49.96;96533.94;5024210;28;19921;-70
2023/04/29 07:39:18;;;;;;;;;;;;;;;25.26;51.60;96529.31;5037385;28;19923;-71
2023/04/29 07:41:44;;;;;;;;;;;;;;;24.53;54.05;96524.50;5041610;28;19917;-72
2023/04/29 07:44:09;;;;;;;;;;;;;;;24.71;53.33;96529.31;5036459;28;20373;-71
2023/04/29 07:46:35;;;;;;;;;;;;;;;24.97;52.30;96529.78;5032283;28;19917;-72
2023/04/29 07:49:01;;;;;;;;;;;;;;;24.52;55.60;96532.06;5041251;28;19961;-72
2023/04/29 07:51:27;;;;;;;;;;;;;;;25.70;50.30;96533.78;5037241;28;19944;-71
2023/04/29 07:53:53;;;;;;;;;;;;;;;25.81;50.44;96539.66;5043534;28;19924;-72
2023/04/29 07:56:27;;;;;;;;;;;;;;;25.62;49.39;96538.16;5038082;28;19921;-71
2023/04/29 07:58:53;;;;;;;;;;;;;;;24.61;52.26;96534.13;5042035;28;19921;-71
2023/04/29 08:01:18;;;;;;;;;;;;;;;24.16;54.27;96536.31;5037679;28;19921;-71
2023/04/29 08:03:44;;;;;;;;;;;;;;;22.76;58.75;96533.13;5041550;28;20029;-71
2023/04/29 08:06:09;;;;;;;;;;;;;;;22.51;61.74;96536.75;5018429;28;20419;-71
2023/04/29 08:08:35;;;;;;;;;;;;;;;21.91;62.85;96532.69;5041792;28;20007;-72
2023/04/29 08:11:00;;;;;;;;;;;;;;;21.17;68.48;96531.63;5042309;28;19971;-73
2023/04/29 08:13:25;;;;;;;;;;;;;;;22.19;65.48;96535.78;5018577;28;19917;-74
2023/04/29 08:15:51;;;;;;;;;;;;;;;22.65;64.44;96539.06;5041954;28;19928;-72
2023/04/29 08:18:17;;;;;;;;;;;;;;;22.10;67.24;96533.66;5042580;28;19921;-70
2023/04/29 08:20:42;;;;;;;;;;;;;;;21.77;68.89;96527.56;5024591;28;19917;-70
2023/04/29 08:23:07;;;;;;;;;;;;;;;21.47;70.18;96529.63;5039423;28;20027;-72
2023/04/29 08:25:32;;;;;;;;;;;;;;;21.52;69.15;96529.06;5024780;28;20377;-71
2023/04/29 08:27:58;;;;;;;;;;;;;;;21.32;71.44;96525.66;5041886;28;19921;-72
2023/04/29 08:30:23;;;;;;;;;;;;;;;20.90;72.21;96526.41;5038264;28;20164;-70
2023/04/29 08:32:49;;;;;;;;;;;;;;;20.20;75.05;96530.59;5023775;28;20377;-70
2023/04/29 08:35:14;;;;;;;;;;;;;;;19.35;81.94;96531.28;5026187;28;20254;-73
2023/04/29 08:37:40;;;;;;;;;;;;;;;19.23;84.28;96533.53;5046574;28;19975;-72
2023/04/29 08:40:06;;;;;;;;;;;;;;;20.02;81.47;96528.22;5037181;28;19924;-69
2023/04/29 08:42:34;;;;;;;;;;;;;;;20.37;79.54;96528.59;5045048;28;20286;-70
2023/04/29 08:45:00;;;;;;;;;;;;;;;21.34;73.89;96524.00;5046640;28;19927;-70
2023/04/29 08:47:29;;;;;;;;;;;;;;;21.92;68.87;96530.66;5040299;28;19928;-72
2023/04/29 08:49:55;;;;;;;;;;;;;;;21.94;66.28;96536.56;5046137;28;20024;-72
2023/04/29 08:52:20;;;;;;;;;;;;;;;21.50;68.90;96525.97;5040940;28;20015;-70
2023/04/29 08:54:45;;;;;;;;;;;;;;;21.19;70.66;96529.22;5045913;28;20034;-71
2023/04/29 08:57:11;;;;;;;;;;;;;;;20.55;74.41;96526.13;5023175;28;19928;-72
2023/04/29 08:59:36;;;;;;;;;;;;;;;21.45;70.20;96522.91;5052753;28;19996;-71
2023/04/29 09:02:03;;;;;;;;;;;;;;;23.38;61.67;96517.78;5015222;28;19921;-67
2023/04/29 09:04:42;;;;;;;;;;;;;;;24.24;56.93;96525.63;5032927;28;19932;-71
2023/04/29 09:07:09;;;;;;;;;;;;;;;25.69;52.29;96518.19;5019379;28;19926;-71
2023/04/29 09:09:35;;;;;;;;;;;;;;;25.53;50.55;96522.13;5040062;28;20055;-71
2023/04/29 09:12:00;;;;;;;;;;;;;;;25.71;48.98;96521.28;5024040;28;19982;-72
2023/04/29 09:14:27;;;;;;;;;;;;;;;25.64;49.56;96521.63;5016065;28;19921;-71
2023/04/29 09:16:53;;;;;;;;;;;;;;;23.99;54.69;96521.81;5005317;28;19921;-70
2023/04/29 09:19:34;;;;;;;;;;;;;;;24.83;52.27;96522.00;5034451;28;20007;-71
2023/04/29 09:22:00;;;;;;;;;;;;;;;23.85;53.65;96516.78;5044008;28;19916;-70
2023/04/29 09:24:26;;;;;;;;;;;;;;;24.48;49.79;96511.84;5038445;28;20301;-72
2023/04/29 09:26:52;;;;;;;;;;;;;;;24.13;49.94;96519.69;5043311;28;19921;-71
2023/04/29 09:29:17;;;;;;;;;;;;;;;24.17;50.24;96515.50;5038371;28;19917;-69
2023/04/29 09:31:43;;;;;;;;;;;;;;;25.62;47.94;96508.06;5043987;28;19917;-71
2023/04/29 09:34:10;;;;;;;;;;;;;;;25.61;48.05;96516.97;5039056;28;19979;-72
2023/04/29 09:36:38;;;;;;;;;;;;;;;26.12;45.29;96507.75;5043330;28;19925;-69
2023/04/29 09:39:10;;;;;;;;;;;;;;;25.49;45.91;96505.47;5038998;28;19972;-66
2023/04/29 09:41:56;;;;;;;;;;;;;;;25.31;46.66;96506.28;5025819;28;19975;-72
2023/04/29 09:44:28;;;;;;;;;;;;;;;26.27;43.59;96505.81;5035780;28;20091;-73
2023/04/29 09:46:58;;;;;;;;;;;;;;;26.88;41.56;96508.38;5041339;28;19946;-72
2023/04/29 09:49:25;;;;;;;;;;;;;;;26.33;42.01;96508.75;5045337;28;20590;-73
2023/04/29 09:51:51;;;;;;;;;;;;;;;26.55;42.37;96508.44;5027015;28;19917;-72
2023/04/29 09:54:20;;;;;;;;;;;;;;;26.04;43.69;96509.38;5038682;28;19921;-70
2023/04/29 09:56:51;;;;;;;;;;;;;;;25.27;44.52;96510.50;5025361;28;20001;-73
2023/04/29 09:59:20;;;;;;;;;;;;;;;24.55;46.75;96508.00;5038371;28;19943;-72
2023/04/29 10:01:49;;;;;;;;;;;;;;;25.13;46.13;96509.09;5043402;28;19917;-73
2023/04/29 10:04:15;;;;;;;;;;;;;;;24.66;44.91;96507.53;5039705;28;20346;-72
2023/04/29 10:06:41;;;;;;;;;;;;;;;25.63;43.75;96506.06;5041821;28;19932;-73
2023/04/29 10:09:07;;;;;;;;;;;;;;;25.36;44.45;96494.44;5019910;28;19921;-70
2023/04/29 10:11:33;;;;;;;;;;;;;;;25.38;44.82;96497.53;5042572;28;19920;-72
2023/04/29 10:13:58;;;;;;;;;;;;;;;25.82;41.43;96501.94;5042988;28;19916;-72
2023/04/29 10:16:28;;;;;;;;;;;;;;;24.28;44.47;96487.09;5036766;28;20502;-71
2023/04/29 10:18:54;;;;;;;;;;;;;;;24.85;41.91;96499.91;5043093;28;20293;-71
2023/04/29 10:21:23;;;;;;;;;;;;;;;25.52;40.55;96493.31;5037759;28;19921;-72
2023/04/29 10:23:49;;;;;;;;;;;;;;;25.35;42.56;96487.28;5043141;28;19970;-73
2023/04/29 10:26:15;;;;;;;;;;;;;;;24.59;43.04;96489.78;5035353;28;19925;-72
2023/04/29 10:28:42;;;;;;;;;;;;;;;23.40;44.75;96490.16;5043281;28;20435;-73
2023/04/29 10:31:08;;;;;;;;;;;;;;;23.84;43.37;96487.25;5025933;28;19963;-72
2023/04/29 10:33:34;;;;;;;;;;;;;;;24.82;41.65;96484.81;5042432;28;19921;-74
2023/04/29 10:36:00;;;;;;;;;;;;;;;24.58;43.89;96481.88;5042359;28;20004;-73
2023/04/29 10:38:32;;;;;;;;;;;;;;;24.18;45.41;96468.72;5037888;28;20444;-70
2023/04/29 10:40:59;;;;;;;;;;;;;;;23.67;46.91;96469.94;5045080;28;19917;-73
2023/04/29 10:43:25;;;;;;;;;;;;;;;23.98;46.91;96467.09;5023368;28;20335;-72
2023/04/29 10:46:10;;;;;;;;;;;;;;;25.00;42.81;96470.03;5043691;28;19920;-70
2023/04/29 10:48:36;;;;;;;;;;;;;;;24.16;43.11;96469.16;5041759;28;20320;-71
2023/04/29 10:51:01;;;;;;;;;;;;;;;24.24;42.72;96469.66;5040895;28;19917;-75
2023/04/29 10:53:28;;;;;;;;;;;;;;;24.61;42.42;96470.53;5019544;28;19923;-71
2023/04/29 10:55:55;;;;;;;;;;;;;;;24.47;42.08;96468.31;5024454;28;19928;-68
2023/04/29 10:58:39;;;;;;;;;;;;;;;24.74;42.18;96455.56;5037611;28;21901;-68
2023/04/29 11:01:10;;;;;;;;;;;;;;;23.91;42.02;96455.44;5036267;28;20304;-69
2023/04/29 11:03:54;;;;;;;;;;;;;;;24.50;42.17;96458.19;5039909;28;19916;-70
2023/04/29 11:06:21;;;;;;;;;;;;;;;24.91;40.67;96450.44;5036747;28;19920;-69
2023/04/29 11:08:47;;;;;;;;;;;;;;;24.61;41.42;96450.13;5042995;28;20031;-69
2023/04/29 11:11:13;;;;;;;;;;;;;;;24.25;42.33;96451.63;5034832;28;20019;-71
2023/04/29 11:13:39;;;;;;;;;;;;;;;24.65;42.68;96444.38;5042676;28;19928;-72
2023/04/29 11:16:08;;;;;;;;;;;;;;;25.03;39.06;96441.09;5036842;28;19921;-65
2023/04/29 11:18:35;;;;;;;;;;;;;;;24.52;41.97;96441.69;5042250;28;20293;-71
2023/04/29 11:21:03;;;;;;;;;;;;;;;23.85;42.16;96436.47;5023790;28;20227;-71
2023/04/29 11:23:29;;;;;;;;;;;;;;;23.92;38.68;96438.19;5040525;28;19917;-72
2023/04/29 11:25:55;;;;;;;;;;;;;;;23.46;39.62;96433.22;5042144;28;19991;-71
2023/04/29 11:28:21;;;;;;;;;;;;;;;23.62;41.05;96429.38;5037095;28;19940;-71
2023/04/29 11:30:47;;;;;;;;;;;;;;;23.87;40.48;96429.63;5024008;28;19924;-71
2023/04/29 11:33:12;;;;;;;;;;;;;;;23.85;37.86;96433.66;5037724;28;20457;-71
2023/04/29 11:35:38;;;;;;;;;;;;;;;23.45;41.19;96422.47;5041203;28;19928;-72
2023/04/29 11:38:04;;;;;;;;;;;;;;;23.30;38.43;96422.28;5018254;28;20107;-70
2023/04/29 11:40:31;;;;;;;;;;;;;;;22.71;41.02;96425.59;5022436;28;19938;-71
2023/04/29 11:42:56;;;;;;;;;;;;;;;22.65;42.71;96421.84;5041773;28;20333;-71
2023/04/29 11:45:21;;;;;;;;;;;;;;;22.74;41.39;96420.34;5018013;28;19925;-72
2023/04/29 11:47:47;;;;;;;;;;;;;;;22.49;40.66;96420.00;5041320;28;19916;-70
2023/04/29 11:50:15;;;;;;;;;;;;;;;23.19;40.29;96424.66;5036003;28;19917;-71
2023/04/29 11:52:41;;;;;;;;;;;;;;;23.30;40.30;96413.88;5041766;28;19925;-73
2023/04/29 11:55:10;;;;;;;;;;;;;;;23.37;39.81;96415.59;5036005;28;19921;-74
2023/04/29 11:57:36;;;;;;;;;;;;;;;23.50;38.84;96418.28;5040575;28;19920;-73
2023/04/29 12:00:01;;;;;;;;;;;;;;;23.37;39.93;96413.59;5022148;28;20385;-71
2023/04/29 12:02:30;;;;;;;;;;;;;;;23.36;38.88;96419.66;5033956;28;19917;-70
2023/04/29 12:04:56;;;;;;;;;;;;;;;23.27;39.55;96418.34;5041191;28;19924;-71
2023/04/29 12:07:22;;;;;;;;;;;;;;;23.19;39.62;96416.28;5036742;28;20231;-71
2023/04/29 12:09:47;;;;;;;;;;;;;;;22.87;39.99;96413.44;5044639;28;19924;-70
2023/04/29 12:12:13;;;;;;;;;;;;;;;23.24;40.14;96413.69;5047859;28;19924;-71
2023/04/29 12:14:39;;;;;;;;;;;;;;;23.64;39.67;96412.94;5044121;28;19924;-71
2023/04/29 12:17:05;;;;;;;;;;;;;;;23.84;39.66;96414.53;5034923;28;19925;-70
2023/04/29 12:19:31;;;;;;;;;;;;;;;23.80;39.49;96411.13;5041196;28;19927;-72
2023/04/29 12:21:59;;;;;;;;;;;;;;;24.08;38.44;96409.19;5040982;28;19921;-69
2023/04/29 12:24:24;;;;;;;;;;;;;;;23.23;39.74;96412.13;5018016;28;19997;-70
2023/04/29 12:26:49;;;;;;;;;;;;;;;23.48;39.98;96415.97;5040819;28;20000;-74
2023/04/29 12:29:15;;;;;;;;;;;;;;;23.79;39.64;96412.34;5035760;28;19921;-74
2023/04/29 12:31:40;;;;;;;;;;;;;;;23.73;39.59;96416.97;5040891;28;20308;-72
2023/04/29 12:34:06;;;;;;;;;;;;;;;23.76;38.88;96416.84;5035236;28;19932;-72
2023/04/29 12:36:32;;;;;;;;;;;;;;;23.65;39.83;96408.88;5042054;28;19931;-69